Time;durP1;ratioP1;P1;durP2;ratioP2;P2;SDS_P1;SDS_P2;PMS_P1;PMS_P2;Temp;Humidity;BMP_temperature;BMP_pressure;BME280_temperature;BME280_humidity;BME280_pressure;Samples;Min_cycle;Max_cycle;Signal;HPM_P1;HPM_P2
2023/10/24 00:02:16;;;;;;;11.10;4.45;;;15.60;65.30;;;;;;5000464;28;20046;-49
2023/10/24 00:04:43;;;;;;;5.32;3.60;;;15.60;65.50;;;;;;5000941;28;20057;-49
2023/10/24 00:07:11;;;;;;;6.82;3.80;;;15.50;65.40;;;;;;5001660;28;20053;-45
2023/10/24 00:09:38;;;;;;;6.32;3.53;;;15.60;65.60;;;;;;5002580;28;20108;-47
2023/10/24 00:12:07;;;;;;;6.57;3.53;;;15.50;65.70;;;;;;5000962;28;20061;-47
2023/10/24 00:14:34;;;;;;;7.15;3.47;;;15.60;65.90;;;;;;5001487;28;20054;-49
2023/10/24 00:17:02;;;;;;;5.78;3.60;;;15.60;65.90;;;;;;5001836;28;20049;-48
2023/10/24 00:19:29;;;;;;;7.15;3.47;;;15.60;66.00;;;;;;5000223;28;20045;-50
2023/10/24 00:21:56;;;;;;;7.53;3.50;;;15.60;66.00;;;;;;4999815;28;20058;-46
2023/10/24 00:24:23;;;;;;;7.05;4.05;;;15.60;66.00;;;;;;5001979;28;20057;-49
2023/10/24 00:26:51;;;;;;;5.70;3.80;;;15.60;66.00;;;;;;5001658;28;20072;-48
2023/10/24 00:29:19;;;;;;;11.32;4.38;;;15.60;66.00;;;;;;5001463;28;20053;-46
2023/10/24 00:31:46;;;;;;;4.03;3.30;;;15.60;66.10;;;;;;4999131;28;20494;-47
2023/10/24 00:34:14;;;;;;;5.07;3.58;;;15.60;66.10;;;;;;4999850;28;20057;-51
2023/10/24 00:36:43;;;;;;;8.73;3.78;;;15.60;66.10;;;;;;5001981;28;20050;-48
2023/10/24 00:39:10;;;;;;;8.13;4.05;;;15.60;66.80;;;;;;5002139;28;20057;-49
2023/10/24 00:41:37;;;;;;;9.43;4.72;;;15.60;66.20;;;;;;4999612;28;20184;-48
2023/10/24 00:44:06;;;;;;;8.68;4.63;;;15.60;66.30;;;;;;4999885;28;20053;-48
2023/10/24 00:46:35;;;;;;;5.97;4.25;;;15.60;66.30;;;;;;4999711;28;20042;-47
2023/10/24 00:49:04;;;;;;;7.75;4.65;;;15.60;66.30;;;;;;4999641;28;20390;-47
2023/10/24 00:51:31;;;;;;;8.15;4.25;;;15.60;66.30;;;;;;5001737;28;20053;-48
2023/10/24 00:54:00;;;;;;;9.07;4.75;;;15.60;66.30;;;;;;5000233;28;20050;-47
2023/10/24 00:56:30;;;;;;;10.77;5.20;;;15.60;66.30;;;;;;4999942;28;20060;-50
2023/10/24 00:58:58;;;;;;;12.48;4.40;;;15.60;66.30;;;;;;4999990;28;20068;-47
2023/10/24 01:01:26;;;;;;;11.05;4.88;;;15.60;66.30;;;;;;4998116;28;20053;-48
2023/10/24 01:03:56;;;;;;;6.35;4.45;;;15.60;66.30;;;;;;4999690;28;20050;-50
2023/10/24 01:06:23;;;;;;;6.03;4.20;;;15.60;66.30;;;;;;5001797;28;20049;-49
2023/10/24 01:08:50;;;;;;;10.98;4.95;;;15.60;66.30;;;;;;5001538;28;20053;-48
2023/10/24 01:11:18;;;;;;;10.80;4.40;;;15.60;66.40;;;;;;4999873;28;20058;-48
2023/10/24 01:13:45;;;;;;;8.35;4.57;;;15.60;66.30;;;;;;4999368;28;20505;-47
2023/10/24 01:16:12;;;;;;;10.77;4.63;;;15.60;66.40;;;;;;4999698;28;20057;-48
2023/10/24 01:18:41;;;;;;;12.15;4.45;;;15.60;66.40;;;;;;5000139;28;20057;-50
2023/10/24 01:21:10;;;;;;;11.63;5.28;;;15.60;66.50;;;;;;5000292;28;20065;-48
2023/10/24 01:23:39;;;;;;;8.00;4.13;;;15.60;66.40;;;;;;4999609;28;20068;-45
2023/10/24 01:26:09;;;;;;;7.80;4.80;;;15.60;66.50;;;;;;5000669;28;20073;-46
2023/10/24 01:28:36;;;;;;;13.30;5.18;;;15.60;66.50;;;;;;5000115;28;20585;-48
2023/10/24 01:31:03;;;;;;;9.25;4.95;;;15.60;66.50;;;;;;4997568;28;20056;-47
2023/10/24 01:33:30;;;;;;;10.05;4.90;;;15.60;66.60;;;;;;4999535;28;20061;-47
2023/10/24 01:35:58;;;;;;;7.05;4.88;;;15.60;66.60;;;;;;4999959;28;20517;-49
2023/10/24 01:38:25;;;;;;;9.27;4.60;;;15.60;66.60;;;;;;5000272;28;20502;-47
2023/10/24 01:40:53;;;;;;;13.20;5.32;;;15.60;66.60;;;;;;4998888;28;20064;-48
2023/10/24 01:43:21;;;;;;;7.47;4.78;;;15.60;66.60;;;;;;5000349;28;20968;-45
2023/10/24 01:45:48;;;;;;;9.10;4.57;;;15.60;66.60;;;;;;5000300;28;20498;-48
2023/10/24 01:48:15;;;;;;;9.55;4.57;;;15.60;66.60;;;;;;5000239;28;20391;-51
2023/10/24 01:50:42;;;;;;;10.05;4.43;;;15.60;66.60;;;;;;4998422;28;20058;-50
2023/10/24 01:53:10;;;;;;;14.10;5.22;;;15.60;66.60;;;;;;4998826;28;20058;-49
2023/10/24 01:55:37;;;;;;;8.15;4.45;;;15.60;67.20;;;;;;5000254;28;20490;-45
2023/10/24 01:58:06;;;;;;;9.02;4.60;;;15.60;66.50;;;;;;5003702;28;20422;-50
2023/10/24 02:00:33;;;;;;;8.13;4.88;;;15.60;66.50;;;;;;5002269;28;20497;-48
2023/10/24 02:03:00;;;;;;;8.23;5.07;;;15.60;66.50;;;;;;5002321;28;20413;-48
2023/10/24 02:05:27;;;;;;;14.35;4.60;;;15.60;66.60;;;;;;5004677;28;20410;-47
2023/10/24 02:07:55;;;;;;;8.95;4.75;;;15.60;66.60;;;;;;5004356;28;20523;-47
2023/10/24 02:10:22;;;;;;;6.40;4.22;;;15.60;66.60;;;;;;5002465;28;20057;-49
2023/10/24 02:12:49;;;;;;;6.13;3.88;;;15.60;66.70;;;;;;5002148;28;20061;-50
2023/10/24 02:15:18;;;;;;;7.40;3.60;;;15.60;66.70;;;;;;5002573;28;20408;-49
2023/10/24 02:17:45;;;;;;;7.22;4.00;;;15.60;66.70;;;;;;5001914;28;20049;-50
2023/10/24 02:20:13;;;;;;;8.43;4.22;;;15.60;66.70;;;;;;5003027;28;20061;-48
2023/10/24 02:22:41;;;;;;;12.88;3.88;;;15.60;66.70;;;;;;5001129;28;20057;-48
2023/10/24 02:25:09;;;;;;;6.45;4.20;;;15.60;66.70;;;;;;5001064;28;20064;-48
2023/10/24 02:27:38;;;;;;;6.18;3.50;;;15.60;66.80;;;;;;5003916;28;20058;-45
2023/10/24 02:30:08;;;;;;;10.48;3.80;;;15.60;66.80;;;;;;5002990;28;20057;-48
2023/10/24 02:32:36;;;;;;;7.38;3.20;;;15.60;66.90;;;;;;4999200;28;20631;-47
2023/10/24 02:35:04;;;;;;;6.97;3.45;;;15.60;67.00;;;;;;5000407;28;20402;-46
2023/10/24 02:37:31;;;;;;;16.63;3.53;;;15.60;67.10;;;;;;5003305;28;20054;-45
2023/10/24 02:39:59;;;;;;;5.22;2.95;;;15.60;67.10;;;;;;5002116;28;20058;-47
2023/10/24 02:42:26;;;;;;;5.97;3.53;;;15.60;67.10;;;;;;5002295;28;20054;-45
2023/10/24 02:44:53;;;;;;;6.97;3.28;;;15.60;67.20;;;;;;5002362;28;20054;-47
2023/10/24 02:47:21;;;;;;;10.35;4.13;;;15.60;67.20;;;;;;5002341;28;20053;-47
2023/10/24 02:49:50;;;;;;;5.07;2.92;;;15.60;67.30;;;;;;5000679;28;20605;-46
2023/10/24 02:52:19;;;;;;;7.28;2.72;;;15.60;67.40;;;;;;5001493;28;20509;-44
2023/10/24 02:54:46;;;;;;;5.63;2.25;;;15.60;67.30;;;;;;5002995;28;20050;-45
2023/10/24 02:57:15;;;;;;;5.25;2.90;;;15.60;67.30;;;;;;5002672;28;20046;-43
2023/10/24 02:59:42;;;;;;;6.72;2.58;;;15.60;67.30;;;;;;5001929;28;20065;-44
2023/10/24 03:02:10;;;;;;;5.38;2.40;;;15.60;67.30;;;;;;5000686;28;20605;-47
2023/10/24 03:04:37;;;;;;;4.70;2.35;;;15.60;67.30;;;;;;5001182;28;20054;-48
2023/10/24 03:07:05;;;;;;;3.60;2.30;;;15.60;67.30;;;;;;4998594;28;20057;-45
2023/10/24 03:09:35;;;;;;;5.70;2.40;;;15.60;68.00;;;;;;4999985;28;20050;-44
2023/10/24 03:12:02;;;;;;;3.53;2.20;;;15.60;67.40;;;;;;4997189;28;20108;-46
2023/10/24 03:14:29;;;;;;;4.60;2.00;;;15.60;67.30;;;;;;5001332;28;20402;-47
2023/10/24 03:16:56;;;;;;;5.82;1.90;;;15.60;67.40;;;;;;4999142;28;20061;-47
2023/10/24 03:19:24;;;;;;;3.53;1.75;;;15.60;67.40;;;;;;5001371;28;20057;-46
2023/10/24 03:21:52;;;;;;;2.50;1.50;;;15.60;67.30;;;;;;5000414;28;20050;-47
2023/10/24 03:24:20;;;;;;;5.18;1.30;;;15.60;67.40;;;;;;5001932;28;20061;-47
2023/10/24 03:26:47;;;;;;;6.38;1.60;;;15.60;67.40;;;;;;5002446;28;20053;-46
2023/10/24 03:29:15;;;;;;;4.57;1.20;;;15.60;67.30;;;;;;5002165;28;20046;-47
2023/10/24 03:31:42;;;;;;;5.40;1.02;;;15.60;67.20;;;;;;5001252;28;20058;-46
2023/10/24 03:34:09;;;;;;;2.55;1.17;;;15.60;67.10;;;;;;5002389;28;20050;-46
2023/10/24 03:36:37;;;;;;;1.42;0.90;;;15.60;67.00;;;;;;5001326;28;20716;-46
2023/10/24 03:39:06;;;;;;;4.93;1.17;;;15.60;67.00;;;;;;5000334;28;20077;-47
2023/10/24 03:41:34;;;;;;;2.80;1.10;;;15.50;66.80;;;;;;5000868;28;20062;-44
2023/10/24 03:44:02;;;;;;;3.50;1.20;;;15.50;66.70;;;;;;5002100;28;20050;-44
2023/10/24 03:46:29;;;;;;;5.35;1.20;;;15.50;66.70;;;;;;5000374;28;20046;-46
2023/10/24 03:48:57;;;;;;;2.10;1.13;;;15.50;66.60;;;;;;5002124;28;20048;-46
2023/10/24 03:51:24;;;;;;;2.38;1.00;;;15.50;66.70;;;;;;5001296;28;20054;-45
2023/10/24 03:53:53;;;;;;;2.70;0.90;;;15.40;66.80;;;;;;5000972;28;20502;-46
2023/10/24 03:56:20;;;;;;;1.17;0.80;;;15.40;66.90;;;;;;5000887;28;20072;-46
2023/10/24 03:58:48;;;;;;;1.88;0.80;;;15.40;66.90;;;;;;5000655;28;20042;-47
2023/10/24 04:01:16;;;;;;;5.28;0.77;;;15.40;66.90;;;;;;5001092;28;20061;-46
2023/10/24 04:03:43;;;;;;;5.70;1.45;;;15.40;67.00;;;;;;5000715;28;20057;-49
2023/10/24 04:06:11;;;;;;;2.70;0.90;;;15.30;66.90;;;;;;5001058;28;20084;-47
2023/10/24 04:08:38;;;;;;;2.00;0.63;;;15.30;66.90;;;;;;5000949;28;20058;-44
2023/10/24 04:11:13;;;;;;;1.55;0.70;;;15.30;66.90;;;;;;5000238;28;20050;-44
2023/10/24 04:13:40;;;;;;;1.38;0.60;;;15.30;66.90;;;;;;5000997;28;20062;-46
2023/10/24 04:16:09;;;;;;;0.68;0.60;;;15.30;66.90;;;;;;5000649;28;20072;-45
2023/10/24 04:18:36;;;;;;;1.45;0.60;;;15.30;66.90;;;;;;5000291;28;20042;-49
2023/10/24 04:21:03;;;;;;;4.30;0.80;;;15.30;66.90;;;;;;5002282;28;20057;-44
2023/10/24 04:23:31;;;;;;;2.15;0.70;;;15.30;66.90;;;;;;5001184;28;20054;-45
2023/10/24 04:25:58;;;;;;;1.77;0.60;;;15.30;66.90;;;;;;4998909;28;20061;-49
2023/10/24 04:28:25;;;;;;;1.88;0.57;;;15.30;66.80;;;;;;5001236;28;20053;-47
2023/10/24 04:30:53;;;;;;;1.00;0.50;;;15.30;66.80;;;;;;5002391;28;20513;-45
2023/10/24 04:33:21;;;;;;;3.95;0.70;;;15.30;66.70;;;;;;5000224;28;20073;-44
2023/10/24 04:35:50;;;;;;;1.15;0.60;;;15.30;66.80;;;;;;5002276;28;20065;-45
2023/10/24 04:38:18;;;;;;;1.38;0.50;;;15.30;66.80;;;;;;5001864;28;20487;-43
2023/10/24 04:40:45;;;;;;;3.33;0.60;;;15.30;66.60;;;;;;5001058;28;20065;-43
2023/10/24 04:43:13;;;;;;;1.63;0.50;;;15.30;66.70;;;;;;5001887;28;20072;-46
2023/10/24 04:45:40;;;;;;;2.90;0.70;;;15.30;66.60;;;;;;4999091;28;20081;-47
2023/10/24 04:48:07;;;;;;;1.63;0.38;;;15.30;66.50;;;;;;4999350;28;20144;-47
2023/10/24 04:50:38;;;;;;;1.00;0.45;;;15.20;66.30;;;;;;4999964;28;20065;-46
2023/10/24 04:53:06;;;;;;;0.52;0.50;;;15.20;66.30;;;;;;5000180;28;20064;-45
2023/10/24 04:55:33;;;;;;;1.55;0.43;;;15.20;66.30;;;;;;5000220;28;20399;-48
2023/10/24 04:58:01;;;;;;;0.40;0.40;;;15.20;66.30;;;;;;5000750;28;20056;-48
2023/10/24 05:00:43;;;;;;;0.45;0.30;;;15.20;66.30;;;;;;4977656;28;20137;-44
2023/10/24 05:03:10;;;;;;;1.00;0.50;;;15.20;66.30;;;;;;5001644;28;20069;-46
2023/10/24 05:05:39;;;;;;;1.23;0.50;;;15.20;66.40;;;;;;5002058;28;20414;-47
2023/10/24 05:08:10;;;;;;;2.40;0.55;;;15.20;66.40;;;;;;5001454;28;20076;-46
2023/10/24 05:10:37;;;;;;;0.70;0.50;;;15.10;66.30;;;;;;4999808;28;20053;-48
2023/10/24 05:13:04;;;;;;;1.90;0.75;;;15.10;66.30;;;;;;5002031;28;20061;-49
2023/10/24 05:15:32;;;;;;;1.38;0.52;;;15.10;66.40;;;;;;4999775;28;20491;-46
2023/10/24 05:17:59;;;;;;;0.80;0.52;;;15.10;66.50;;;;;;4999825;28;20050;-49
2023/10/24 05:20:27;;;;;;;2.45;0.60;;;15.10;66.50;;;;;;5000134;28;20379;-48
2023/10/24 05:22:55;;;;;;;1.15;0.47;;;15.10;66.50;;;;;;4999569;28;20502;-48
2023/10/24 05:25:23;;;;;;;2.65;1.30;;;15.10;66.40;;;;;;5000004;28;20064;-46
2023/10/24 05:27:50;;;;;;;1.25;0.95;;;15.10;66.40;;;;;;4998845;28;20057;-50
2023/10/24 05:30:17;;;;;;;2.80;0.63;;;15.10;66.50;;;;;;4997992;28;20060;-47
2023/10/24 05:32:44;;;;;;;2.55;0.57;;;15.10;66.30;;;;;;5000504;28;20073;-45
2023/10/24 05:35:12;;;;;;;0.80;0.50;;;15.00;66.20;;;;;;5002209;28;20057;-45
2023/10/24 05:37:39;;;;;;;0.80;0.50;;;15.00;66.20;;;;;;4999995;28;20426;-48
2023/10/24 05:40:08;;;;;;;1.27;0.63;;;15.00;66.20;;;;;;4999208;28;20077;-50
2023/10/24 05:42:36;;;;;;;1.85;0.55;;;15.00;66.10;;;;;;5000236;28;20056;-47
2023/10/24 05:45:04;;;;;;;1.38;0.40;;;15.00;65.90;;;;;;4996614;28;20056;-45
2023/10/24 05:47:32;;;;;;;0.73;0.50;;;15.00;65.80;;;;;;4998343;28;20046;-46
2023/10/24 05:49:59;;;;;;;10.57;3.40;;;15.00;65.70;;;;;;4998844;28;20069;-49
2023/10/24 05:52:26;;;;;;;3.03;2.00;;;15.00;65.70;;;;;;4996253;28;20054;-48
2023/10/24 05:54:54;;;;;;;3.03;1.30;;;15.00;65.90;;;;;;4996988;28;20045;-46
2023/10/24 05:57:23;;;;;;;1.13;0.80;;;15.00;65.90;;;;;;4998642;28;20057;-50
2023/10/24 05:59:51;;;;;;;1.33;0.57;;;15.00;66.00;;;;;;4999337;28;20403;-48
2023/10/24 06:02:18;;;;;;;2.33;0.43;;;14.90;66.00;;;;;;4997046;28;20057;-46
2023/10/24 06:04:45;;;;;;;6.07;1.75;;;14.90;65.80;;;;;;4998075;28;20422;-46
2023/10/24 06:07:13;;;;;;;50.38;23.30;;;14.90;65.80;;;;;;4999493;28;20502;-48
2023/10/24 06:09:40;;;;;;;61.05;26.10;;;14.90;65.80;;;;;;4999907;28;20046;-43
2023/10/24 06:12:08;;;;;;;35.78;20.38;;;14.90;65.80;;;;;;5001247;28;20058;-47
2023/10/24 06:14:37;;;;;;;15.43;9.57;;;14.90;65.70;;;;;;4998398;28;20061;-45
2023/10/24 06:17:04;;;;;;;6.43;3.63;;;14.90;65.80;;;;;;4998791;28;20517;-46
2023/10/24 06:19:33;;;;;;;2.63;1.85;;;14.90;65.80;;;;;;4999781;28;20061;-46
2023/10/24 06:22:00;;;;;;;2.28;2.05;;;14.90;65.80;;;;;;4997372;28;20049;-45
2023/10/24 06:24:28;;;;;;;3.33;1.10;;;14.80;65.80;;;;;;4999077;28;20064;-49
2023/10/24 06:26:55;;;;;;;1.95;1.73;;;14.90;65.80;;;;;;4998675;28;20058;-46
2023/10/24 06:29:22;;;;;;;1.85;0.93;;;14.80;65.70;;;;;;4998477;28;20168;-45
2023/10/24 06:31:51;;;;;;;0.98;0.63;;;14.80;65.50;;;;;;5000329;28;20080;-43
2023/10/24 06:34:18;;;;;;;1.60;0.70;;;14.80;65.60;;;;;;5001239;28;20517;-46
2023/10/24 06:36:45;;;;;;;0.75;0.63;;;14.80;65.70;;;;;;5000496;28;20064;-44
2023/10/24 06:39:12;;;;;;;1.77;1.17;;;14.80;65.80;;;;;;5000946;28;20406;-46
2023/10/24 06:41:40;;;;;;;3.33;0.98;;;14.80;65.60;;;;;;5000812;28;20056;-45
2023/10/24 06:44:07;;;;;;;1.65;0.80;;;14.80;65.60;;;;;;5003500;28;20057;-48
2023/10/24 06:46:34;;;;;;;7.82;0.95;;;14.80;65.50;;;;;;5003264;28;20058;-45
2023/10/24 06:49:03;;;;;;;7.53;1.38;;;14.80;65.40;;;;;;5003593;28;20513;-45
2023/10/24 06:51:30;;;;;;;4.43;1.60;;;14.80;65.30;;;;;;5004431;28;20064;-48
2023/10/24 06:53:58;;;;;;;2.38;1.20;;;14.80;65.20;;;;;;5002183;28;20065;-47
2023/10/24 06:56:25;;;;;;;1.83;1.00;;;14.80;65.20;;;;;;5002567;28;20072;-46
2023/10/24 06:58:52;;;;;;;2.50;1.13;;;14.80;65.20;;;;;;5003171;28;20510;-46
2023/10/24 07:01:20;;;;;;;2.30;0.75;;;14.80;65.10;;;;;;5002157;28;20061;-45
2023/10/24 07:03:47;;;;;;;1.98;0.80;;;14.80;65.00;;;;;;5002913;28;20065;-44
2023/10/24 07:06:16;;;;;;;1.95;0.80;;;14.80;65.10;;;;;;5002252;28;20060;-46
2023/10/24 07:08:46;;;;;;;2.08;0.65;;;14.80;65.20;;;;;;5004394;28;20050;-44
2023/10/24 07:11:13;;;;;;;1.48;0.65;;;14.80;65.40;;;;;;5003128;28;20058;-46
2023/10/24 07:13:41;;;;;;;1.42;0.52;;;14.80;65.50;;;;;;5002040;28;20058;-45
2023/10/24 07:16:13;;;;;;;3.00;1.80;;;14.80;65.60;;;;;;5002363;28;20422;-44
2023/10/24 07:18:41;;;;;;;1.65;0.95;;;14.80;65.70;;;;;;5000139;28;20502;-47
2023/10/24 07:21:08;;;;;;;2.17;0.82;;;14.80;65.80;;;;;;5000001;28;20050;-43
2023/10/24 07:23:38;;;;;;;1.20;0.70;;;14.80;65.70;;;;;;5002042;28;20054;-48
2023/10/24 07:26:06;;;;;;;2.05;0.63;;;14.80;65.60;;;;;;5001599;28;20054;-46
2023/10/24 07:28:35;;;;;;;1.90;0.63;;;14.80;65.70;;;;;;5002250;28;20060;-43
2023/10/24 07:31:03;;;;;;;1.77;0.68;;;14.80;65.80;;;;;;5000017;28;20050;-44
2023/10/24 07:33:30;;;;;;;1.73;0.70;;;14.80;65.90;;;;;;4999123;28;20592;-45
2023/10/24 07:36:04;;;;;;;2.75;0.63;;;14.90;66.00;;;;;;5002273;28;20505;-49
2023/10/24 07:38:33;;;;;;;2.15;1.02;;;14.90;66.10;;;;;;5001611;28;20045;-46
2023/10/24 07:41:02;;;;;;;6.50;1.13;;;14.90;66.10;;;;;;5001953;28;20053;-45
2023/10/24 07:43:30;;;;;;;2.65;0.90;;;14.90;66.00;;;;;;4999943;28;20065;-43
2023/10/24 07:45:58;;;;;;;3.78;1.02;;;14.90;66.10;;;;;;4999445;28;20490;-48
2023/10/24 07:48:26;;;;;;;1.73;1.05;;;14.90;66.20;;;;;;4998240;28;20057;-46
2023/10/24 07:50:54;;;;;;;1.85;1.00;;;15.00;66.30;;;;;;4998676;28;20406;-44
2023/10/24 07:53:21;;;;;;;1.35;0.82;;;15.00;66.30;;;;;;4999080;28;20050;-47
2023/10/24 07:55:49;;;;;;;2.13;0.70;;;15.00;66.30;;;;;;5000664;28;20061;-45
2023/10/24 07:58:20;;;;;;;3.53;0.88;;;15.00;66.30;;;;;;4998919;28;20057;-45
2023/10/24 08:00:49;;;;;;;3.05;1.15;;;15.00;67.00;;;;;;4996726;28;20045;-48
2023/10/24 08:03:18;;;;;;;28.60;11.57;;;15.00;66.20;;;;;;4998213;28;20053;-45
2023/10/24 08:05:45;;;;;;;6.43;3.30;;;15.10;66.30;;;;;;4997002;28;20049;-43
2023/10/24 08:08:12;;;;;;;2.90;1.58;;;15.10;66.20;;;;;;4999298;28;20058;-43
2023/10/24 08:10:40;;;;;;;2.67;0.80;;;15.10;66.20;;;;;;5001129;28;20049;-43
2023/10/24 08:13:07;;;;;;;2.90;0.60;;;15.10;66.10;;;;;;4998793;28;20061;-47
2023/10/24 08:15:36;;;;;;;3.95;0.73;;;15.20;66.10;;;;;;4996365;28;20085;-44
2023/10/24 08:18:03;;;;;;;1.98;1.05;;;15.20;66.10;;;;;;4999324;28;20053;-44
2023/10/24 08:20:30;;;;;;;0.85;0.75;;;15.20;66.10;;;;;;4996585;28;20073;-45
2023/10/24 08:22:58;;;;;;;1.25;0.60;;;15.20;66.00;;;;;;4998544;28;20417;-45
2023/10/24 08:25:25;;;;;;;3.15;0.68;;;15.20;66.00;;;;;;5000942;28;20057;-43
2023/10/24 08:27:52;;;;;;;3.20;0.70;;;15.20;66.10;;;;;;4998583;28;20491;-45
2023/10/24 08:30:20;;;;;;;2.35;0.65;;;15.30;66.20;;;;;;4996109;28;20058;-47
2023/10/24 08:32:48;;;;;;;2.17;0.60;;;15.30;66.30;;;;;;4998962;28;20540;-46
2023/10/24 08:35:16;;;;;;;1.95;0.82;;;15.30;66.10;;;;;;4998001;28;20060;-46
2023/10/24 08:37:43;;;;;;;5.03;0.70;;;15.30;66.10;;;;;;4999976;28;20054;-47
2023/10/24 08:40:12;;;;;;;2.75;0.90;;;15.30;66.10;;;;;;4999298;28;20057;-43
2023/10/24 08:42:39;;;;;;;1.58;0.70;;;15.40;66.10;;;;;;4999364;28;20057;-47
2023/10/24 08:45:07;;;;;;;3.33;0.80;;;15.40;65.90;;;;;;4997339;28;20061;-44
2023/10/24 08:47:36;;;;;;;1.30;0.65;;;15.40;65.80;;;;;;5000245;28;20053;-46
2023/10/24 08:50:06;;;;;;;3.67;1.00;;;15.40;65.80;;;;;;4998436;28;20065;-45
2023/10/24 08:52:33;;;;;;;1.17;0.70;;;15.40;65.70;;;;;;4999976;28;20422;-46
2023/10/24 08:55:03;;;;;;;2.58;0.65;;;15.40;65.70;;;;;;4999986;28;20054;-44
2023/10/24 08:57:35;;;;;;;2.53;1.00;;;15.50;65.90;;;;;;5000741;28;20053;-46
2023/10/24 09:00:03;;;;;;;2.13;0.80;;;15.50;65.90;;;;;;4998642;28;20058;-46
2023/10/24 09:02:31;;;;;;;3.20;0.70;;;15.50;65.90;;;;;;4998087;28;21306;-45
2023/10/24 09:05:00;;;;;;;2.97;0.88;;;15.60;65.90;;;;;;5001800;28;20065;-44
2023/10/24 09:07:29;;;;;;;2.38;0.73;;;15.60;65.80;;;;;;4997571;28;20049;-47
2023/10/24 09:09:56;;;;;;;3.40;0.70;;;15.60;65.70;;;;;;4999803;28;20060;-47
2023/10/24 09:12:23;;;;;;;1.15;0.65;;;15.60;65.60;;;;;;4995363;28;20054;-46
2023/10/24 09:14:50;;;;;;;2.38;0.77;;;15.70;65.50;;;;;;4996564;28;20054;-45
2023/10/24 09:17:18;;;;;;;3.03;0.90;;;15.70;65.40;;;;;;4996307;28;20061;-48
2023/10/24 09:19:45;;;;;;;2.20;0.85;;;15.70;65.30;;;;;;4997343;28;20513;-48
2023/10/24 09:22:16;;;;;;;1.58;0.82;;;15.80;65.40;;;;;;4995771;28;20072;-47
2023/10/24 09:24:46;;;;;;;4.10;1.40;;;15.80;65.50;;;;;;4996399;28;20050;-49
2023/10/24 09:27:14;;;;;;;3.30;0.85;;;15.80;65.40;;;;;;4996037;28;20050;-47
2023/10/24 09:29:42;;;;;;;1.67;0.95;;;15.80;65.30;;;;;;4995943;28;20054;-45
2023/10/24 09:32:15;;;;;;;3.95;0.77;;;15.90;65.30;;;;;;4991299;28;20054;-46
2023/10/24 09:34:43;;;;;;;1.38;0.65;;;15.90;65.10;;;;;;4994501;28;20052;-46
2023/10/24 09:37:13;;;;;;;3.05;0.90;;;16.00;65.10;;;;;;4993496;28;21149;-48
2023/10/24 09:39:55;;;;;;;3.65;0.75;;;16.00;65.10;;;;;;4993223;28;20061;-46
2023/10/24 09:42:25;;;;;;;3.70;0.75;;;16.00;64.80;;;;;;4993514;28;20053;-49
2023/10/24 09:44:54;;;;;;;3.03;1.00;;;16.10;64.70;;;;;;4995455;28;20045;-49
2023/10/24 09:47:24;;;;;;;2.67;0.80;;;16.10;64.60;;;;;;4994506;28;20057;-47
2023/10/24 09:49:52;;;;;;;1.73;0.80;;;16.10;64.50;;;;;;4996609;28;20069;-49
2023/10/24 09:52:21;;;;;;;1.42;0.80;;;16.20;64.50;;;;;;4993468;28;20050;-48
2023/10/24 09:54:50;;;;;;;5.03;1.05;;;16.20;64.40;;;;;;4995046;28;20058;-50
2023/10/24 09:57:20;;;;;;;2.20;0.90;;;16.20;64.30;;;;;;4997433;28;20514;-49
2023/10/24 09:59:49;;;;;;;1.33;0.80;;;16.30;64.20;;;;;;4995993;28;20057;-49
2023/10/24 10:02:19;;;;;;;2.88;0.70;;;16.30;64.00;;;;;;4995205;28;20053;-48
2023/10/24 10:04:48;;;;;;;0.93;0.80;;;16.30;63.80;;;;;;4997426;28;20053;-50
2023/10/24 10:07:16;;;;;;;3.58;0.90;;;16.40;63.70;;;;;;4998376;28;20061;-48
2023/10/24 10:09:47;;;;;;;3.83;1.02;;;16.40;63.50;;;;;;4998183;28;20069;-50
2023/10/24 10:12:17;;;;;;;3.00;0.82;;;16.40;63.30;;;;;;4993317;28;20050;-49
2023/10/24 10:15:06;;;;;;;4.15;1.00;;;16.40;63.20;;;;;;4992688;28;20053;-50
2023/10/24 10:17:39;;;;;;;2.17;0.80;;;16.40;63.00;;;;;;4996230;28;20060;-48
2023/10/24 10:20:31;;;;;;;1.67;0.88;;;16.40;63.00;;;;;;4996792;28;20060;-50
2023/10/24 10:23:26;;;;;;;3.33;0.70;;;16.50;62.90;;;;;;5000132;28;20055;-46
2023/10/24 10:26:01;;;;;;;;;;;16.40;62.70;;;;;;5001690;28;20065;-49
2023/10/24 10:28:38;;;;;;;;;;;16.50;63.10;;;;;;5000478;28;19932;-48
2023/10/24 10:31:22;;;;;;;2.72;0.90;;;16.60;63.10;;;;;;4999100;28;19929;-47
2023/10/24 10:33:50;;;;;;;3.00;0.80;;;16.50;62.70;;;;;;4998819;28;20060;-47
2023/10/24 10:36:19;;;;;;;2.65;0.95;;;16.50;62.70;;;;;;5000187;28;20057;-51
2023/10/24 10:38:48;;;;;;;2.60;1.10;;;16.50;62.80;;;;;;4997707;28;20057;-46
2023/10/24 10:41:34;;;;;;;2.45;0.90;;;16.50;63.00;;;;;;4999624;28;20054;-47
2023/10/24 10:44:05;;;;;;;2.08;0.93;;;16.50;62.90;;;;;;5000995;28;20046;-45
2023/10/24 10:46:34;;;;;;;4.57;1.38;;;16.50;63.10;;;;;;5000565;28;20050;-48
2023/10/24 10:49:03;;;;;;;3.08;0.90;;;16.50;63.30;;;;;;4998931;28;20391;-47
2023/10/24 10:51:32;;;;;;;2.20;1.10;;;16.50;63.40;;;;;;4999513;28;20762;-46
2023/10/24 10:57:30;;;;;;;3.53;1.00;;;16.50;63.30;;;;;;5003369;28;20045;-48
2023/10/24 11:00:03;;;;;;;2.15;0.88;;;16.50;63.60;;;;;;5000988;28;20054;-45
2023/10/24 11:02:52;;;;;;;4.05;0.98;;;16.50;63.70;;;;;;5000230;28;20056;-46
2023/10/24 11:05:50;;;;;;;2.13;1.02;;;16.60;63.90;;;;;;5002271;28;20498;-47
2023/10/24 11:08:21;;;;;;;2.50;1.20;;;16.60;64.10;;;;;;5002891;28;20061;-50
2023/10/24 11:10:59;;;;;;;2.13;0.80;;;16.60;64.00;;;;;;4997064;28;20061;-46
2023/10/24 11:13:32;;;;;;;1.98;0.82;;;16.60;63.90;;;;;;5000953;28;20065;-47
2023/10/24 11:16:01;;;;;;;3.78;1.13;;;16.60;63.90;;;;;;4998645;28;20058;-48
2023/10/24 11:18:31;;;;;;;1.60;0.90;;;16.60;63.80;;;;;;5003691;28;20062;-47
2023/10/24 11:20:58;;;;;;;3.92;1.38;;;16.60;63.80;;;;;;5004132;28;20403;-46
2023/10/24 11:23:26;;;;;;;2.38;1.10;;;16.60;63.80;;;;;;5004036;28;20065;-46
2023/10/24 11:25:54;;;;;;;3.05;0.90;;;16.70;63.80;;;;;;5004310;28;20072;-48
2023/10/24 11:28:21;;;;;;;1.70;0.80;;;16.70;63.80;;;;;;5002637;28;20057;-50
2023/10/24 11:30:49;;;;;;;2.25;0.98;;;16.70;63.90;;;;;;5001600;28;20062;-46
2023/10/24 11:33:18;;;;;;;2.92;0.95;;;16.70;64.00;;;;;;5001738;28;20050;-48
2023/10/24 11:35:47;;;;;;;4.22;1.05;;;16.60;64.00;;;;;;5002257;28;20053;-49
2023/10/24 11:38:15;;;;;;;4.57;0.77;;;16.60;64.10;;;;;;5004341;28;20509;-48
2023/10/24 11:40:46;;;;;;;3.08;0.93;;;16.70;64.20;;;;;;5003592;28;20064;-48
2023/10/24 11:43:14;;;;;;;3.97;0.90;;;16.70;64.20;;;;;;5003147;28;20054;-49
2023/10/24 11:45:42;;;;;;;5.28;0.90;;;16.70;64.20;;;;;;5002798;28;20050;-50
2023/10/24 11:48:10;;;;;;;3.47;1.10;;;16.70;64.30;;;;;;5002834;28;20442;-51
2023/10/24 11:50:46;;;;;;;3.58;1.10;;;16.70;64.30;;;;;;5003539;28;20064;-48
2023/10/24 11:53:20;;;;;;;1.52;1.05;;;16.80;64.40;;;;;;5003736;28;20670;-49
2023/10/24 11:55:48;;;;;;;1.88;0.80;;;16.80;64.50;;;;;;5003142;28;20061;-45
2023/10/24 11:58:15;;;;;;;4.25;0.95;;;16.80;64.50;;;;;;5002638;28;20065;-45
2023/10/24 12:00:44;;;;;;;4.45;1.20;;;16.80;64.60;;;;;;5002412;28;20057;-47
2023/10/24 12:03:12;;;;;;;2.10;1.15;;;16.80;64.50;;;;;;5003631;28;20064;-48
2023/10/24 12:05:53;;;;;;;4.35;1.08;;;16.80;64.40;;;;;;5002252;28;20414;-47
2023/10/24 12:08:23;;;;;;;2.47;1.30;;;16.80;64.50;;;;;;5003225;28;20053;-47
2023/10/24 12:10:55;;;;;;;3.28;1.20;;;16.80;64.30;;;;;;5002856;28;20081;-47
2023/10/24 12:13:23;;;;;;;2.50;1.30;;;16.80;64.10;;;;;;5000840;28;20057;-46
2023/10/24 12:15:51;;;;;;;2.00;1.48;;;16.80;64.00;;;;;;5001322;28;20065;-49
2023/10/24 12:18:18;;;;;;;1.65;0.80;;;16.80;64.20;;;;;;5002436;28;20053;-45
2023/10/24 12:20:45;;;;;;;7.10;1.48;;;16.80;64.20;;;;;;5002379;28;20054;-45
2023/10/24 12:23:14;;;;;;;2.45;0.98;;;16.80;64.20;;;;;;5001385;28;20054;-47
2023/10/24 12:25:41;;;;;;;4.35;1.20;;;16.70;64.10;;;;;;5001152;28;20518;-48
2023/10/24 12:28:09;;;;;;;3.63;1.20;;;16.70;64.20;;;;;;5002000;28;20061;-45
2023/10/24 12:30:36;;;;;;;4.20;1.15;;;16.70;64.30;;;;;;5001748;28;20601;-45
2023/10/24 12:33:03;;;;;;;5.50;1.60;;;16.70;64.40;;;;;;5001702;28;20887;-45
2023/10/24 12:35:30;;;;;;;3.88;1.02;;;16.70;64.60;;;;;;5000449;28;20061;-46
2023/10/24 12:37:58;;;;;;;3.08;1.08;;;16.60;64.60;;;;;;5001362;28;20049;-46
2023/10/24 12:40:27;;;;;;;1.60;0.90;;;16.60;64.80;;;;;;5000026;28;20046;-46
2023/10/24 12:42:54;;;;;;;4.10;1.20;;;16.60;64.90;;;;;;4999752;28;20046;-45
2023/10/24 12:45:22;;;;;;;4.53;1.67;;;16.60;65.00;;;;;;4999951;28;20056;-44
2023/10/24 12:47:51;;;;;;;6.32;2.17;;;16.60;65.00;;;;;;5001153;28;20061;-47
2023/10/24 12:50:19;;;;;;;3.25;0.82;;;16.50;65.00;;;;;;5002089;28;20058;-47
2023/10/24 12:52:46;;;;;;;2.30;0.93;;;16.50;65.00;;;;;;5001235;28;20050;-44
2023/10/24 12:55:13;;;;;;;4.47;1.00;;;16.50;65.20;;;;;;5002389;28;20050;-43
2023/10/24 12:57:42;;;;;;;12.73;1.23;;;16.40;65.40;;;;;;5000977;28;20049;-47